createdAt,value
2022-11-29T00:01:50.133Z,96.79
2022-11-29T00:04:19.363Z,96.82
2022-11-29T00:06:48.754Z,96.87
2022-11-29T00:09:19.164Z,96.78
2022-11-29T00:12:06.883Z,96.81
2022-11-29T00:14:36.121Z,96.69
2022-11-29T00:17:06.106Z,96.72
2022-11-29T00:19:37.254Z,96.78
2022-11-29T00:22:06.663Z,96.94
2022-11-29T00:24:36.756Z,97.03
2022-11-29T00:27:06.147Z,97.12
2022-11-29T00:29:35.766Z,97.19
2022-11-29T00:32:05.377Z,97.26
2022-11-29T00:34:34.753Z,97.21
2022-11-29T00:37:04.017Z,96.92
2022-11-29T00:39:33.221Z,96.86
2022-11-29T00:42:02.636Z,96.93
2022-11-29T00:44:31.904Z,96.98
2022-11-29T00:47:01.154Z,97.20
2022-11-29T00:49:30.370Z,97.21
2022-11-29T00:51:59.845Z,97.27
2022-11-29T00:54:29.120Z,97.42
2022-11-29T00:56:58.422Z,97.43
2022-11-29T00:59:27.703Z,97.55
2022-11-29T01:01:57.448Z,97.61
2022-11-29T01:04:26.691Z,97.55
2022-11-29T01:06:56.131Z,97.57
2022-11-29T01:09:25.331Z,97.55
2022-11-29T01:11:54.805Z,97.46
2022-11-29T01:14:24.015Z,97.58
2022-11-29T01:16:53.291Z,97.67
2022-11-29T01:19:22.492Z,97.60
2022-11-29T01:21:51.758Z,97.67
2022-11-29T01:24:22.230Z,97.55
2022-11-29T01:26:51.686Z,97.38
2022-11-29T01:29:20.887Z,97.37
2022-11-29T01:31:50.207Z,97.49
2022-11-29T01:34:19.449Z,97.62
2022-11-29T01:36:48.714Z,97.73
2022-11-29T01:39:17.913Z,97.76
2022-11-29T01:41:47.294Z,97.80
2022-11-29T01:44:19.712Z,97.75
2022-11-29T01:46:49.785Z,97.73
2022-11-29T01:49:22.102Z,97.70
2022-11-29T01:52:06.845Z,97.74
2022-11-29T01:54:39.338Z,97.71
2022-11-29T01:57:10.183Z,97.66
2022-11-29T01:59:44.864Z,97.67
2022-11-29T02:02:17.553Z,97.63
2022-11-29T02:04:47.753Z,97.67
2022-11-29T02:07:17.645Z,97.77
2022-11-29T02:09:46.905Z,97.81
2022-11-29T02:12:34.624Z,97.80
2022-11-29T02:15:31.275Z,97.79
2022-11-29T02:18:14.901Z,97.84
2022-11-29T02:21:05.388Z,97.74
2022-11-29T02:23:50.033Z,97.83
2022-11-29T02:26:28.356Z,97.83
2022-11-29T02:29:29.711Z,97.85
2022-11-29T02:32:08.038Z,97.89
2022-11-29T02:34:49.413Z,97.87
2022-11-29T02:37:40.339Z,97.92
2022-11-29T02:40:41.835Z,97.95
2022-11-29T02:43:19.875Z,97.97
2022-11-29T02:46:04.358Z,98.01
2022-11-29T02:48:54.931Z,98.02
2022-11-29T02:51:30.346Z,97.90
2022-11-29T02:54:22.707Z,97.96
2022-11-29T02:57:10.141Z,97.94
2022-11-29T02:59:54.394Z,97.90
2022-11-29T03:02:35.150Z,97.79
2022-11-29T03:05:19.183Z,97.70
2022-11-29T03:07:51.864Z,97.69
2022-11-29T03:10:33.552Z,97.59
2022-11-29T03:13:04.914Z,97.69
2022-11-29T03:15:37.576Z,97.57
2022-11-29T03:18:30.982Z,97.57
2022-11-29T03:21:20.256Z,97.66
2022-11-29T03:23:55.692Z,97.73
2022-11-29T03:26:52.479Z,97.76
2022-11-29T03:29:45.960Z,97.69
2022-11-29T03:32:21.056Z,97.74
2022-11-29T03:34:57.554Z,97.77
2022-11-29T03:37:48.125Z,97.76
2022-11-29T03:40:23.197Z,97.75
2022-11-29T03:42:55.720Z,97.74
2022-11-29T03:45:28.920Z,97.64
2022-11-29T03:48:10.345Z,97.54
2022-11-29T03:50:42.772Z,97.47
2022-11-29T03:53:17.980Z,97.48
2022-11-29T03:55:53.681Z,97.62
2022-11-29T03:58:34.857Z,97.71
2022-11-29T04:01:22.658Z,97.80
2022-11-29T04:04:13.614Z,97.75
2022-11-29T04:06:48.730Z,97.85
2022-11-29T04:09:23.871Z,97.89
2022-11-29T04:12:29.701Z,97.85
2022-11-29T04:15:17.306Z,97.92
2022-11-29T04:18:01.846Z,97.88
2022-11-29T04:20:52.427Z,97.92
2022-11-29T04:23:42.882Z,97.91
2022-11-29T04:26:35.075Z,97.89
2022-11-29T04:29:18.195Z,97.93
2022-11-29T04:31:56.219Z,98.08
2022-11-29T04:35:01.955Z,98.19
2022-11-29T04:37:34.403Z,98.23
2022-11-29T04:40:18.714Z,98.25
2022-11-29T04:43:11.003Z,98.26
2022-11-29T04:46:01.673Z,98.30
2022-11-29T04:48:52.139Z,98.30
2022-11-29T04:51:39.683Z,98.37
2022-11-29T04:54:12.157Z,98.39
2022-11-29T04:56:47.747Z,98.38
2022-11-29T04:59:29.280Z,98.35
2022-11-29T05:02:16.568Z,98.30
2022-11-29T05:04:57.645Z,98.24
2022-11-29T05:07:39.036Z,98.24
2022-11-29T05:10:22.930Z,98.26
2022-11-29T05:12:55.535Z,98.27
2022-11-29T05:15:35.001Z,98.32
2022-11-29T05:18:07.380Z,98.28
2022-11-29T05:20:48.887Z,98.26
2022-11-29T05:23:27.354Z,98.25
2022-11-29T05:26:08.317Z,98.22
2022-11-29T05:28:50.452Z,98.12
2022-11-29T05:31:44.303Z,98.10
2022-11-29T05:34:36.402Z,98.11
2022-11-29T05:37:24.102Z,98.04
2022-11-29T05:40:08.031Z,98.00
2022-11-29T05:43:00.040Z,97.82
2022-11-29T05:45:50.959Z,97.75
2022-11-29T05:48:32.311Z,97.71
2022-11-29T05:51:21.233Z,97.72
2022-11-29T05:54:11.896Z,97.78
2022-11-29T05:57:09.591Z,97.83
2022-11-29T05:59:39.918Z,97.72
2022-11-29T06:02:30.348Z,97.74
2022-11-29T06:05:08.584Z,97.70
2022-11-29T06:07:48.516Z,97.77
2022-11-29T06:10:22.812Z,97.78
2022-11-29T06:13:24.085Z,97.70
2022-11-29T06:16:05.111Z,97.73
2022-11-29T06:19:00.613Z,97.73
2022-11-29T06:21:42.933Z,97.72
2022-11-29T06:24:30.649Z,97.72
2022-11-29T06:27:11.430Z,97.79
2022-11-29T06:29:44.099Z,97.75
2022-11-29T06:32:50.534Z,97.79
2022-11-29T06:35:35.140Z,97.79
2022-11-29T06:38:13.740Z,97.78
2022-11-29T06:40:43.514Z,97.80
2022-11-29T06:43:13.094Z,97.89
2022-11-29T06:45:45.510Z,97.79
2022-11-29T06:48:17.635Z,97.73
2022-11-29T06:50:59.112Z,97.75
2022-11-29T06:53:40.244Z,97.80
2022-11-29T06:56:27.949Z,97.78
2022-11-29T06:59:20.207Z,97.72
2022-11-29T07:01:55.414Z,97.75
2022-11-29T07:04:45.690Z,97.68
2022-11-29T07:07:17.871Z,97.70
2022-11-29T07:09:51.838Z,97.61
2022-11-29T07:12:21.533Z,97.58
2022-11-29T07:14:51.134Z,97.65
2022-11-29T07:17:26.611Z,97.75
2022-11-29T07:20:08.797Z,97.71
2022-11-29T07:22:53.049Z,97.67
2022-11-29T07:25:57.130Z,97.74
2022-11-29T07:28:38.767Z,97.81
2022-11-29T07:31:11.217Z,97.84
2022-11-29T07:33:46.921Z,97.78
2022-11-29T07:36:28.506Z,97.83
2022-11-29T07:39:36.221Z,97.81
2022-11-29T07:42:11.402Z,97.87
2022-11-29T07:44:47.328Z,97.91
2022-11-29T07:47:16.702Z,97.88
2022-11-29T07:49:46.107Z,97.91
2022-11-29T07:52:16.511Z,97.90
2022-11-29T07:54:46.244Z,97.88
2022-11-29T07:57:15.795Z,97.88
2022-11-29T07:59:45.557Z,97.90
2022-11-29T08:02:15.303Z,97.93
2022-11-29T08:04:45.160Z,97.88
2022-11-29T08:07:14.896Z,97.86
2022-11-29T08:09:44.497Z,97.83
2022-11-29T08:12:13.972Z,97.79
2022-11-29T08:14:43.807Z,97.82
2022-11-29T08:17:13.591Z,97.81
2022-11-29T08:19:42.883Z,97.67
2022-11-29T08:22:13.346Z,97.70
2022-11-29T08:24:43.165Z,97.61
2022-11-29T08:27:12.679Z,97.67
2022-11-29T08:29:42.104Z,97.64
2022-11-29T08:32:11.332Z,97.56
2022-11-29T08:34:40.565Z,97.52
2022-11-29T08:37:09.987Z,97.60
2022-11-29T08:39:39.373Z,97.54
2022-11-29T08:42:09.246Z,97.53
2022-11-29T08:44:38.624Z,97.50
2022-11-29T08:47:25.752Z,97.28
2022-11-29T08:50:03.721Z,97.34
2022-11-29T08:52:54.007Z,97.09
2022-11-29T08:55:26.287Z,97.07
2022-11-29T08:57:58.051Z,97.05
2022-11-29T09:00:27.325Z,97.05
2022-11-29T09:02:58.236Z,97.05
2022-11-29T09:05:27.634Z,96.75
2022-11-29T09:07:56.926Z,96.86
2022-11-29T09:10:26.573Z,96.79
2022-11-29T09:12:56.493Z,96.74
2022-11-29T09:15:25.822Z,96.70
2022-11-29T09:17:55.045Z,96.63
2022-11-29T09:20:25.391Z,96.70
2022-11-29T09:22:54.661Z,96.43
2022-11-29T09:25:23.919Z,96.47
2022-11-29T09:27:53.155Z,96.36
2022-11-29T09:30:23.919Z,96.09
2022-11-29T09:32:53.352Z,95.92
2022-11-29T09:35:22.602Z,96.26
2022-11-29T09:37:51.961Z,96.22
2022-11-29T09:40:24.144Z,96.20
2022-11-29T09:43:05.591Z,96.22
2022-11-29T09:45:40.500Z,96.50
2022-11-29T09:48:28.310Z,96.26
2022-11-29T09:51:03.831Z,96.22
2022-11-29T09:53:45.138Z,96.06
2022-11-29T09:56:26.631Z,96.40
2022-11-29T09:59:06.032Z,96.48
2022-11-29T10:01:47.571Z,96.14
2022-11-29T10:04:25.993Z,96.28
2022-11-29T10:07:01.531Z,96.21
2022-11-29T10:09:39.235Z,96.57
2022-11-29T10:12:17.535Z,96.40
2022-11-29T10:14:53.976Z,95.85
2022-11-29T10:17:38.726Z,95.84
2022-11-29T10:20:11.543Z,96.30
2022-11-29T10:23:01.968Z,96.22
2022-11-29T10:25:50.292Z,96.30
2022-11-29T10:28:25.988Z,96.18
2022-11-29T10:30:56.630Z,96.42
2022-11-29T10:33:33.881Z,96.38
2022-11-29T10:36:05.711Z,96.37
2022-11-29T10:38:34.941Z,96.38
2022-11-29T10:41:09.654Z,96.60
2022-11-29T10:43:39.377Z,96.50
2022-11-29T10:46:23.776Z,96.20
2022-11-29T10:48:54.275Z,96.46
2022-11-29T10:51:23.663Z,96.33
2022-11-29T10:53:56.069Z,96.41
2022-11-29T10:56:31.198Z,96.51
2022-11-29T10:59:07.233Z,96.43
2022-11-29T11:01:44.010Z,96.37
2022-11-29T11:04:34.283Z,96.35
2022-11-29T11:07:05.406Z,96.32
2022-11-29T11:09:41.563Z,96.40
2022-11-29T11:12:19.953Z,96.50
2022-11-29T11:14:51.441Z,96.10
2022-11-29T11:17:27.575Z,96.02
2022-11-29T11:20:00.749Z,96.13
2022-11-29T11:22:32.663Z,96.20
2022-11-29T11:25:06.926Z,96.20
2022-11-29T11:27:41.616Z,96.31
2022-11-29T11:30:25.160Z,96.43
2022-11-29T11:33:17.253Z,96.42
2022-11-29T11:35:48.092Z,96.46
2022-11-29T11:38:18.440Z,96.33
2022-11-29T11:40:47.642Z,96.30
2022-11-29T11:43:21.734Z,96.22
2022-11-29T11:45:54.698Z,96.02
2022-11-29T11:48:24.353Z,96.22
2022-11-29T11:50:58.991Z,96.19
2022-11-29T11:53:30.950Z,96.14
2022-11-29T11:56:02.381Z,95.93
2022-11-29T11:58:33.915Z,96.03
2022-11-29T12:01:15.612Z,95.64
2022-11-29T12:04:03.036Z,95.51
2022-11-29T12:06:53.713Z,95.75
2022-11-29T12:09:37.498Z,95.64
2022-11-29T12:12:27.330Z,95.13
2022-11-29T12:15:01.570Z,94.88
2022-11-29T12:17:39.138Z,94.87
2022-11-29T12:20:17.694Z,94.72
2022-11-29T12:23:11.412Z,94.57
2022-11-29T12:25:58.901Z,94.42
2022-11-29T12:28:33.663Z,94.42
2022-11-29T12:31:21.112Z,94.55
2022-11-29T12:34:26.555Z,94.50
2022-11-29T12:37:02.534Z,94.69
2022-11-29T12:39:35.168Z,94.90
2022-11-29T12:42:17.193Z,95.17
2022-11-29T12:45:11.920Z,95.24
2022-11-29T12:47:53.520Z,95.46
2022-11-29T12:50:43.330Z,95.11
2022-11-29T12:53:31.146Z,94.61
2022-11-29T12:56:11.048Z,94.93
2022-11-29T12:58:55.151Z,94.41
2022-11-29T13:01:39.553Z,94.13
2022-11-29T13:04:30.274Z,94.18
2022-11-29T13:07:11.087Z,94.22
2022-11-29T13:09:49.397Z,94.40
2022-11-29T13:12:40.031Z,94.21
2022-11-29T13:15:17.669Z,94.11
2022-11-29T13:18:08.500Z,94.09
2022-11-29T13:20:46.902Z,93.94
2022-11-29T13:23:46.028Z,93.58
2022-11-29T13:26:07.468Z,93.35
2022-11-29T13:28:41.359Z,93.71
2022-11-29T13:31:14.052Z,93.91
2022-11-29T13:34:03.046Z,93.90
2022-11-29T13:37:07.437Z,94.06
2022-11-29T13:39:42.695Z,93.76
2022-11-29T13:42:24.243Z,93.62
2022-11-29T13:45:05.826Z,93.79
2022-11-29T13:47:38.187Z,93.90
2022-11-29T13:50:09.882Z,94.00
2022-11-29T13:52:48.831Z,94.28
2022-11-29T13:55:24.688Z,94.24
2022-11-29T13:58:16.881Z,94.36
2022-11-29T14:00:40.067Z,94.65
2022-11-29T14:03:27.820Z,94.63
2022-11-29T14:06:05.626Z,94.38
2022-11-29T14:09:18.930Z,94.26
2022-11-29T14:11:52.022Z,94.43
2022-11-29T14:14:30.155Z,94.21
2022-11-29T14:17:02.676Z,94.27
2022-11-29T14:19:34.574Z,94.30
2022-11-29T14:22:18.396Z,94.13
2022-11-29T14:24:59.845Z,94.11
2022-11-29T14:27:35.263Z,94.14
2022-11-29T14:30:05.129Z,93.73
2022-11-29T14:32:56.297Z,93.66
2022-11-29T14:35:28.738Z,94.02
2022-11-29T14:38:06.243Z,93.99
2022-11-29T14:40:44.792Z,94.27
2022-11-29T14:43:29.230Z,94.56
2022-11-29T14:46:10.086Z,94.75
2022-11-29T14:48:39.492Z,94.89
2022-11-29T14:51:20.033Z,94.99
2022-11-29T14:53:52.122Z,94.80
2022-11-29T14:56:35.103Z,94.82
2022-11-29T14:59:42.681Z,94.82
2022-11-29T15:02:43.272Z,94.89
2022-11-29T15:05:34.658Z,95.00
2022-11-29T15:08:23.868Z,95.06
2022-11-29T15:11:02.146Z,94.88
2022-11-29T15:13:34.351Z,94.82
2022-11-29T15:16:23.317Z,95.16
2022-11-29T15:18:55.717Z,95.31
2022-11-29T15:21:40.142Z,95.29
2022-11-29T15:24:14.677Z,95.36
2022-11-29T15:27:04.293Z,95.48
2022-11-29T15:29:33.577Z,95.55
2022-11-29T15:32:05.146Z,95.44
2022-11-29T15:34:40.050Z,95.60
2022-11-29T15:37:13.796Z,95.65
2022-11-29T15:39:43.042Z,95.71
2022-11-29T15:42:14.392Z,95.75
2022-11-29T15:44:48.198Z,96.02
2022-11-29T15:47:23.857Z,95.81
2022-11-29T15:49:54.431Z,95.95
2022-11-29T15:52:26.133Z,95.99
2022-11-29T15:54:58.532Z,96.02
2022-11-29T15:57:39.774Z,96.06
2022-11-29T16:00:19.631Z,96.19
2022-11-29T16:02:54.736Z,96.15
2022-11-29T16:05:36.190Z,96.09
2022-11-29T16:08:08.579Z,95.99
2022-11-29T16:10:43.743Z,96.02
2022-11-29T16:13:39.068Z,96.11
2022-11-29T16:16:22.172Z,96.10
2022-11-29T16:18:52.037Z,96.11
2022-11-29T16:21:32.366Z,96.16
2022-11-29T16:24:13.933Z,96.13
2022-11-29T16:26:44.906Z,95.82
2022-11-29T16:29:28.144Z,95.81
2022-11-29T16:31:57.715Z,95.89
2022-11-29T16:34:32.795Z,95.97
2022-11-29T16:37:05.322Z,95.95
2022-11-29T16:39:36.853Z,96.10
2022-11-29T16:42:25.568Z,96.05
2022-11-29T16:45:18.568Z,96.15
2022-11-29T16:47:54.709Z,96.22
2022-11-29T16:50:24.199Z,96.22
2022-11-29T16:52:56.812Z,96.24
2022-11-29T16:55:24.604Z,96.15
2022-11-29T16:57:54.152Z,96.20
2022-11-29T17:00:33.949Z,96.28
2022-11-29T17:03:03.393Z,96.38
2022-11-29T17:05:32.693Z,96.46
2022-11-29T17:08:02.230Z,96.24
2022-11-29T17:10:32.694Z,96.20
2022-11-29T17:13:03.772Z,96.29
2022-11-29T17:15:33.313Z,96.27
2022-11-29T17:18:02.690Z,96.34
2022-11-29T17:20:32.052Z,96.35
2022-11-29T17:23:01.281Z,96.16
2022-11-29T17:25:30.671Z,96.28
2022-11-29T17:27:59.979Z,96.27
2022-11-29T17:30:30.118Z,96.18
2022-11-29T17:32:59.467Z,96.14
2022-11-29T17:35:28.686Z,96.20
2022-11-29T17:37:59.841Z,96.22
2022-11-29T17:40:29.090Z,96.25
2022-11-29T17:42:58.553Z,96.19
2022-11-29T17:45:27.960Z,96.20
2022-11-29T17:47:59.048Z,96.38
2022-11-29T17:50:28.354Z,96.33
2022-11-29T17:52:57.585Z,96.25
2022-11-29T17:55:29.544Z,96.21
2022-11-29T17:57:57.899Z,96.02
2022-11-29T18:00:27.192Z,96.24
2022-11-29T18:02:56.426Z,96.21
2022-11-29T18:05:28.981Z,96.25
2022-11-29T18:07:59.845Z,96.33
2022-11-29T18:10:29.896Z,96.34
2022-11-29T18:12:59.259Z,96.30
2022-11-29T18:15:28.552Z,96.37
2022-11-29T18:17:57.939Z,96.40
2022-11-29T18:20:27.307Z,96.54
2022-11-29T18:22:56.649Z,96.71
2022-11-29T18:25:41.130Z,96.81
2022-11-29T18:27:57.167Z,96.76
2022-11-29T18:30:26.573Z,96.69
2022-11-29T18:32:57.550Z,96.74
2022-11-29T18:35:27.963Z,96.67
2022-11-29T18:38:14.696Z,96.68
2022-11-29T18:40:28.303Z,96.47
2022-11-29T18:42:57.685Z,96.50
2022-11-29T18:45:26.920Z,96.33
2022-11-29T18:47:56.509Z,96.06
2022-11-29T18:50:25.726Z,96.20
2022-11-29T18:52:56.003Z,96.22
2022-11-29T18:55:25.870Z,96.02
2022-11-29T18:57:55.878Z,96.02
2022-11-29T19:00:25.155Z,96.17
2022-11-29T19:02:55.047Z,96.24
2022-11-29T19:05:24.375Z,96.35
2022-11-29T19:07:53.952Z,96.35
2022-11-29T19:10:23.251Z,96.42
2022-11-29T19:12:52.762Z,96.39
2022-11-29T19:15:21.996Z,96.50
2022-11-29T19:17:51.545Z,96.59
2022-11-29T19:20:20.759Z,96.64
2022-11-29T19:22:50.173Z,96.61
2022-11-29T19:25:19.378Z,96.63
2022-11-29T19:27:49.142Z,96.67
2022-11-29T19:30:18.645Z,96.63
2022-11-29T19:32:48.041Z,96.53
2022-11-29T19:35:17.638Z,96.55
2022-11-29T19:37:47.066Z,96.64
2022-11-29T19:40:16.576Z,96.66
2022-11-29T19:42:50.254Z,96.75
2022-11-29T19:45:19.619Z,96.80
2022-11-29T19:47:49.513Z,96.57
2022-11-29T19:50:18.908Z,96.58
2022-11-29T19:52:48.495Z,96.59
2022-11-29T19:55:17.863Z,96.65
2022-11-29T19:57:47.182Z,96.57
2022-11-29T20:00:17.258Z,96.40
2022-11-29T20:02:46.696Z,96.37
2022-11-29T20:05:16.196Z,96.52
2022-11-29T20:07:45.525Z,96.53
2022-11-29T20:10:14.992Z,96.42
2022-11-29T20:12:44.626Z,96.55
2022-11-29T20:15:13.943Z,96.69
2022-11-29T20:17:43.221Z,96.74
2022-11-29T20:20:13.271Z,96.83
2022-11-29T20:22:42.526Z,96.84
2022-11-29T20:25:13.267Z,96.85
2022-11-29T20:27:42.552Z,96.83
2022-11-29T20:30:12.819Z,96.83
2022-11-29T20:32:42.207Z,96.96
2022-11-29T20:35:12.329Z,96.95
2022-11-29T20:38:10.445Z,96.91
2022-11-29T20:41:02.489Z,96.94
2022-11-29T20:43:46.189Z,96.97
2022-11-29T20:46:16.196Z,96.76
2022-11-29T20:48:45.749Z,96.74
2022-11-29T20:51:15.183Z,96.79
2022-11-29T20:53:46.579Z,96.85
2022-11-29T20:56:16.162Z,96.79
2022-11-29T20:58:45.649Z,96.93
2022-11-29T21:01:15.823Z,96.91
2022-11-29T21:03:45.474Z,97.00
2022-11-29T21:06:15.097Z,96.79
2022-11-29T21:08:44.314Z,96.94
2022-11-29T21:11:13.931Z,97.00
2022-11-29T21:13:43.582Z,97.20
2022-11-29T21:16:14.547Z,97.32
2022-11-29T21:18:44.158Z,97.42
2022-11-29T21:21:16.754Z,97.46
2022-11-29T21:23:49.732Z,97.40
2022-11-29T21:26:21.730Z,97.38
2022-11-29T21:29:02.930Z,97.35
2022-11-29T21:31:32.551Z,97.37
2022-11-29T21:34:02.077Z,97.40
2022-11-29T21:36:31.414Z,97.50
2022-11-29T21:39:04.825Z,97.52
2022-11-29T21:41:31.576Z,97.44
2022-11-29T21:44:08.690Z,97.49
2022-11-29T21:46:32.152Z,97.48
2022-11-29T21:49:01.368Z,97.47
2022-11-29T21:51:30.818Z,97.63
2022-11-29T21:54:00.043Z,97.65
2022-11-29T21:56:29.573Z,97.63
2022-11-29T21:58:58.804Z,97.71
2022-11-29T22:01:29.592Z,97.77
2022-11-29T22:03:59.017Z,97.81
2022-11-29T22:06:29.503Z,97.81
2022-11-29T22:08:59.829Z,97.76
2022-11-29T22:11:34.393Z,97.71
2022-11-29T22:14:15.391Z,97.79
2022-11-29T22:16:54.263Z,97.91
2022-11-29T22:19:28.753Z,97.96
2022-11-29T22:22:00.288Z,97.94
2022-11-29T22:24:31.840Z,97.95
2022-11-29T22:27:01.833Z,97.99
2022-11-29T22:29:31.104Z,97.98
2022-11-29T22:32:01.353Z,98.05
2022-11-29T22:34:30.650Z,98.02
2022-11-29T22:37:00.056Z,98.03
2022-11-29T22:39:32.121Z,97.99
2022-11-29T22:42:01.620Z,97.88
2022-11-29T22:44:31.321Z,97.69
2022-11-29T22:47:00.659Z,97.68
2022-11-29T22:49:30.137Z,97.72
2022-11-29T22:51:59.385Z,97.72
2022-11-29T22:54:28.607Z,97.67
2022-11-29T22:56:58.023Z,97.68
2022-11-29T22:59:27.245Z,97.62
2022-11-29T23:01:56.684Z,97.65
2022-11-29T23:04:25.938Z,97.63
2022-11-29T23:06:55.242Z,97.59
2022-11-29T23:09:24.457Z,97.52
2022-11-29T23:11:56.444Z,97.58
2022-11-29T23:14:26.384Z,97.67
2022-11-29T23:16:55.893Z,97.75
2022-11-29T23:19:25.107Z,97.75
2022-11-29T23:21:55.989Z,97.69
2022-11-29T23:24:25.446Z,97.67
2022-11-29T23:26:54.677Z,97.74
2022-11-29T23:29:24.137Z,97.62
2022-11-29T23:31:53.438Z,97.49
2022-11-29T23:34:22.824Z,97.48
2022-11-29T23:36:53.272Z,97.29
2022-11-29T23:39:22.949Z,97.23
2022-11-29T23:41:52.195Z,97.24
2022-11-29T23:44:21.786Z,97.25
2022-11-29T23:46:51.005Z,97.33
2022-11-29T23:49:20.390Z,97.43
2022-11-29T23:51:49.619Z,97.43
2022-11-29T23:54:18.835Z,97.33
2022-11-29T23:56:48.058Z,97.49
2022-11-29T23:59:17.387Z,97.46
